Time;durP1;ratioP1;P1;durP2;ratioP2;P2;SDS_P1;SDS_P2;PMS_P1;PMS_P2;Temp;Humidity;BMP_temperature;BMP_pressure;BME280_temperature;BME280_humidity;BME280_pressure;Samples;Min_cycle;Max_cycle;Signal;HPM_P1;HPM_P2
2022/12/22 03:25:53;;;;;;;;;;;;;;;1.37;100.00;100531.69;5569377;32;34037;-72
2022/12/22 03:29:01;;;;;;;;;;;;;;;1.39;100.00;100529.81;5570137;32;33357;-71
2022/12/22 03:32:07;;;;;;;;;;;;;;;1.56;100.00;100526.00;5570030;32;33497;-71
2022/12/22 03:35:14;;;;;;;;;;;;;;;1.55;100.00;100516.53;5570013;32;34062;-72
2022/12/22 03:38:20;;;;;;;;;;;;;;;1.65;100.00;100523.59;5569933;32;33868;-71
2022/12/22 03:48:15;;;;;;;;;;;;;;;1.43;100.00;100502.53;5569879;32;33645;-73
2022/12/22 03:51:21;;;;;;;;;;;;;;;1.35;100.00;100494.37;5570015;32;33634;-73
2022/12/22 03:54:27;;;;;;;;;;;;;;;0.97;100.00;100502.22;5569811;32;33850;-74
2022/12/22 03:57:35;;;;;;;;;;;;;;;0.86;100.00;100499.50;5569870;32;33789;-74
2022/12/22 04:00:46;;;;;;;;;;;;;;;0.88;100.00;100497.59;5569851;32;34207;-74
2022/12/22 04:03:53;;;;;;;;;;;;;;;0.84;100.00;100504.81;5556163;32;34423;-74
2022/12/22 04:06:59;;;;;;;;;;;;;;;0.84;100.00;100496.16;5569576;32;33804;-75
2022/12/22 04:13:30;;;;;;;;;;;;;;;0.76;100.00;100509.72;5569762;32;33671;-75
2022/12/22 04:16:38;;;;;;;;;;;;;;;0.76;100.00;100514.13;5569428;32;33881;-74
2022/12/22 04:19:44;;;;;;;;;;;;;;;0.69;100.00;100515.44;5569631;32;34171;-75
2022/12/22 04:22:55;;;;;;;;;;;;;;;0.57;100.00;100514.50;5556306;32;33322;-75
2022/12/22 04:26:03;;;;;;;;;;;;;;;0.58;100.00;100516.16;5569226;32;33835;-75
2022/12/22 04:29:12;;;;;;;;;;;;;;;0.60;100.00;100514.28;5569182;32;34123;-75
2022/12/22 04:32:20;;;;;;;;;;;;;;;0.61;100.00;100513.34;5569057;32;34046;-75
2022/12/22 04:35:25;;;;;;;;;;;;;;;0.73;100.00;100515.13;5569383;32;34110;-75
2022/12/22 04:38:34;;;;;;;;;;;;;;;0.86;100.00;100516.00;5569603;32;34079;-76
2022/12/22 04:41:41;;;;;;;;;;;;;;;0.73;100.00;100512.53;5571532;32;33795;-75
2022/12/22 04:44:47;;;;;;;;;;;;;;;0.70;100.00;100506.69;5571444;32;33840;-75
2022/12/22 04:47:52;;;;;;;;;;;;;;;0.74;100.00;100510.75;5571591;32;33868;-75
2022/12/22 04:50:59;;;;;;;;;;;;;;;0.78;100.00;100505.22;5571480;32;33468;-74
2022/12/22 04:54:05;;;;;;;;;;;;;;;0.77;100.00;100502.75;5571417;32;33470;-74
2022/12/22 04:57:10;;;;;;;;;;;;;;;0.75;100.00;100502.81;5557535;32;34178;-74
2022/12/22 05:00:18;;;;;;;;;;;;;;;0.76;100.00;100494.06;5571609;32;33420;-73
2022/12/22 05:03:26;;;;;;;;;;;;;;;0.81;100.00;100499.81;5571186;32;33674;-74
2022/12/22 05:06:32;;;;;;;;;;;;;;;0.85;100.00;100497.81;5571103;32;34259;-75
2022/12/22 05:09:39;;;;;;;;;;;;;;;0.82;100.00;100498.03;5571262;32;34262;-74
2022/12/22 05:13:03;;;;;;;;;;;;;;;0.83;100.00;100495.31;5571091;32;34073;-75
2022/12/22 05:16:14;;;;;;;;;;;;;;;0.73;100.00;100507.31;5571075;32;33725;-74
2022/12/22 05:19:21;;;;;;;;;;;;;;;0.78;100.00;100497.38;5571267;32;34083;-74
2022/12/22 05:22:33;;;;;;;;;;;;;;;0.77;100.00;100494.91;5571136;32;33671;-73
2022/12/22 05:25:41;;;;;;;;;;;;;;;0.73;100.00;100496.03;5570964;32;33614;-74
2022/12/22 05:28:48;;;;;;;;;;;;;;;0.77;100.00;100500.12;5570897;32;33727;-73
2022/12/22 05:31:55;;;;;;;;;;;;;;;0.76;100.00;100493.22;5570863;32;34393;-72
2022/12/22 05:35:01;;;;;;;;;;;;;;;0.88;100.00;100502.84;5570862;32;33614;-72
2022/12/22 05:38:08;;;;;;;;;;;;;;;1.06;100.00;100509.44;5570988;32;33865;-72
2022/12/22 05:41:16;;;;;;;;;;;;;;;0.98;100.00;100503.03;5570931;32;33309;-73
2022/12/22 05:44:24;;;;;;;;;;;;;;;0.99;100.00;100504.72;5570752;32;33994;-73
2022/12/22 05:47:30;;;;;;;;;;;;;;;0.96;100.00;100495.34;5570959;32;34336;-72
2022/12/22 05:50:39;;;;;;;;;;;;;;;0.86;100.00;100487.28;5556604;32;34037;-73
2022/12/22 05:53:47;;;;;;;;;;;;;;;0.80;100.00;100486.84;5570807;32;33653;-73
2022/12/22 05:56:55;;;;;;;;;;;;;;;0.84;100.00;100483.09;5556652;32;35057;-73
2022/12/22 06:00:04;;;;;;;;;;;;;;;0.84;100.00;100488.31;5556870;32;33757;-73
2022/12/22 06:03:14;;;;;;;;;;;;;;;0.80;100.00;100490.31;5570776;32;34133;-73
2022/12/22 06:06:20;;;;;;;;;;;;;;;0.80;100.00;100489.47;5570656;32;33659;-73
2022/12/22 06:09:27;;;;;;;;;;;;;;;0.82;100.00;100498.84;5556756;32;34058;-74
2022/12/22 06:12:33;;;;;;;;;;;;;;;0.94;100.00;100499.81;5570783;32;33810;-73
2022/12/22 06:15:41;;;;;;;;;;;;;;;1.02;100.00;100501.91;5570698;32;34356;-74
2022/12/22 06:18:51;;;;;;;;;;;;;;;0.96;100.00;100503.16;5570641;32;33625;-73
2022/12/22 06:22:01;;;;;;;;;;;;;;;0.90;100.00;100493.12;5570557;32;33576;-73
2022/12/22 06:25:09;;;;;;;;;;;;;;;0.98;100.00;100511.72;5570577;32;34304;-73
2022/12/22 06:28:21;;;;;;;;;;;;;;;0.85;100.00;100509.13;5570604;32;33696;-73
2022/12/22 06:31:27;;;;;;;;;;;;;;;0.87;100.00;100509.81;5570575;32;33997;-73
2022/12/22 06:34:33;;;;;;;;;;;;;;;0.84;100.00;100517.03;5570351;32;34306;-73
2022/12/22 06:37:39;;;;;;;;;;;;;;;0.85;100.00;100511.72;5570568;32;33716;-73
2022/12/22 06:40:46;;;;;;;;;;;;;;;0.85;100.00;100510.88;5556348;32;34407;-73
2022/12/22 06:43:55;;;;;;;;;;;;;;;0.82;100.00;100517.12;5570585;32;34336;-73
2022/12/22 06:47:00;;;;;;;;;;;;;;;0.83;100.00;100518.81;5570148;32;34371;-73
2022/12/22 06:50:07;;;;;;;;;;;;;;;0.81;100.00;100510.25;5570514;32;34327;-73
2022/12/22 06:53:14;;;;;;;;;;;;;;;0.78;100.00;100520.06;5570170;32;33662;-73
2022/12/22 06:56:20;;;;;;;;;;;;;;;0.84;100.00;100530.09;5569913;32;33704;-73
2022/12/22 06:59:26;;;;;;;;;;;;;;;0.87;100.00;100528.09;5570350;32;34397;-73
2022/12/22 07:02:32;;;;;;;;;;;;;;;0.92;100.00;100533.03;5568708;32;34309;-73
2022/12/22 07:05:37;;;;;;;;;;;;;;;0.90;100.00;100532.31;5569576;32;33648;-73
2022/12/22 07:08:42;;;;;;;;;;;;;;;1.14;100.00;100522.81;5569958;32;33594;-72
2022/12/22 07:11:49;;;;;;;;;;;;;;;1.02;100.00;100509.72;5569891;32;34304;-72
2022/12/22 07:14:58;;;;;;;;;;;;;;;0.99;100.00;100509.94;5569910;32;33692;-72
2022/12/22 07:18:03;;;;;;;;;;;;;;;1.01;100.00;100514.16;5569913;32;34379;-71
2022/12/22 07:21:08;;;;;;;;;;;;;;;1.00;100.00;100515.09;5569937;32;33670;-72
2022/12/22 07:24:12;;;;;;;;;;;;;;;0.98;100.00;100519.56;5555986;32;33463;-72
2022/12/22 07:27:18;;;;;;;;;;;;;;;0.99;100.00;100512.56;5569786;32;34228;-71
2022/12/22 07:30:23;;;;;;;;;;;;;;;1.08;100.00;100515.37;5556286;32;34094;-72
2022/12/22 07:33:29;;;;;;;;;;;;;;;1.19;100.00;100514.66;5569733;32;33546;-72
2022/12/22 07:36:32;;;;;;;;;;;;;;;1.25;100.00;100524.69;5556115;32;34065;-72
2022/12/22 07:39:38;;;;;;;;;;;;;;;1.29;100.00;100527.00;5569439;32;34454;-73
2022/12/22 07:42:45;;;;;;;;;;;;;;;1.40;100.00;100528.03;5569758;32;33970;-72
2022/12/22 07:45:48;;;;;;;;;;;;;;;1.30;100.00;100527.84;5569913;32;33725;-72
2022/12/22 07:52:17;;;;;;;;;;;;;;;1.14;100.00;100535.87;5569498;32;34294;-72
2022/12/22 07:55:23;;;;;;;;;;;;;;;1.28;100.00;100527.09;5569619;32;33621;-72
2022/12/22 07:58:29;;;;;;;;;;;;;;;1.37;100.00;100541.31;5569382;32;33695;-71
2022/12/22 08:01:33;;;;;;;;;;;;;;;1.45;100.00;100539.84;5569376;32;33648;-72
2022/12/22 08:04:38;;;;;;;;;;;;;;;1.24;100.00;100542.16;5555053;32;32706;-71
2022/12/22 08:07:42;;;;;;;;;;;;;;;1.24;100.00;100534.31;5568822;32;34310;-72
2022/12/22 08:10:49;;;;;;;;;;;;;;;1.31;100.00;100527.72;5556038;32;33534;-71
2022/12/22 08:13:54;;;;;;;;;;;;;;;1.39;100.00;100521.97;5570805;32;34305;-72
2022/12/22 08:17:05;;;;;;;;;;;;;;;1.33;100.00;100532.00;5557341;32;34026;-71
2022/12/22 08:20:10;;;;;;;;;;;;;;;1.42;100.00;100533.97;5571646;32;34381;-71
2022/12/22 08:23:13;;;;;;;;;;;;;;;1.64;100.00;100535.03;5557800;32;32338;-71
2022/12/22 08:26:23;;;;;;;;;;;;;;;1.75;100.00;100531.63;5571555;32;33833;-71
2022/12/22 08:29:34;;;;;;;;;;;;;;;1.91;100.00;100536.63;5571830;32;34298;-71
2022/12/22 08:32:40;;;;;;;;;;;;;;;2.09;100.00;100527.44;5545425;32;34524;-71
2022/12/22 08:35:45;;;;;;;;;;;;;;;2.00;100.00;100528.13;5557783;32;35161;-71
2022/12/22 08:38:51;;;;;;;;;;;;;;;1.95;100.00;100520.59;5571286;32;34321;-74
2022/12/22 08:41:56;;;;;;;;;;;;;;;2.11;100.00;100521.19;5571290;32;34085;-72
2022/12/22 08:45:00;;;;;;;;;;;;;;;2.17;100.00;100525.13;5571173;31;34126;-72
2022/12/22 08:48:06;;;;;;;;;;;;;;;2.16;100.00;100526.91;5557481;32;34892;-73
2022/12/22 08:51:11;;;;;;;;;;;;;;;2.27;100.00;100527.94;5557677;32;34274;-73
2022/12/22 08:54:19;;;;;;;;;;;;;;;2.43;100.00;100541.53;5571290;32;34334;-72
2022/12/22 08:57:24;;;;;;;;;;;;;;;2.12;100.00;100533.31;5557213;32;32862;-71
2022/12/22 09:00:30;;;;;;;;;;;;;;;1.93;100.00;100535.59;5571146;32;33618;-71
2022/12/22 09:03:35;;;;;;;;;;;;;;;1.86;100.00;100521.25;5571252;32;34266;-71
2022/12/22 09:06:42;;;;;;;;;;;;;;;1.82;100.00;100532.88;5557214;32;34490;-72
2022/12/22 09:09:46;;;;;;;;;;;;;;;1.94;100.00;100518.06;5571281;32;33751;-71
2022/12/22 09:12:50;;;;;;;;;;;;;;;2.00;100.00;100521.09;5571003;32;34111;-72
2022/12/22 09:15:54;;;;;;;;;;;;;;;2.40;100.00;100513.81;5570828;32;34331;-71
2022/12/22 09:19:01;;;;;;;;;;;;;;;2.55;100.00;100517.09;5558040;32;34294;-71
2022/12/22 09:22:06;;;;;;;;;;;;;;;2.69;100.00;100505.59;5570995;32;34421;-72
2022/12/22 09:25:10;;;;;;;;;;;;;;;2.70;100.00;100502.03;5570444;32;34258;-72
2022/12/22 09:28:16;;;;;;;;;;;;;;;2.48;100.00;100490.53;5570868;32;34343;-72
2022/12/22 09:31:23;;;;;;;;;;;;;;;2.63;100.00;100494.63;5570830;32;34249;-72
2022/12/22 09:34:30;;;;;;;;;;;;;;;2.44;100.00;100488.25;5556889;32;34753;-71
2022/12/22 09:37:36;;;;;;;;;;;;;;;2.69;100.00;100476.78;5570668;32;33668;-72
2022/12/22 09:40:41;;;;;;;;;;;;;;;2.68;100.00;100477.72;5570681;32;33636;-73
2022/12/22 09:43:46;;;;;;;;;;;;;;;2.89;100.00;100482.19;5570712;32;34125;-71
2022/12/22 09:46:53;;;;;;;;;;;;;;;2.95;100.00;100488.75;5556385;32;33726;-72
2022/12/22 09:49:59;;;;;;;;;;;;;;;2.51;100.00;100487.69;5570675;32;33568;-72
2022/12/22 09:53:06;;;;;;;;;;;;;;;2.21;100.00;100466.38;5570758;32;33561;-72
2022/12/22 09:56:15;;;;;;;;;;;;;;;2.35;100.00;100479.28;5570481;32;33733;-72
2022/12/22 09:59:22;;;;;;;;;;;;;;;2.66;100.00;100472.62;5571002;32;33696;-71
2022/12/22 10:02:26;;;;;;;;;;;;;;;2.83;100.00;100473.94;5570627;32;34316;-71
2022/12/22 10:05:37;;;;;;;;;;;;;;;2.47;100.00;100464.47;5557165;32;33664;-72
2022/12/22 10:08:42;;;;;;;;;;;;;;;2.57;100.00;100468.03;5570587;32;33691;-71
2022/12/22 10:11:57;;;;;;;;;;;;;;;2.73;100.00;100467.72;5556883;32;34520;-72
2022/12/22 10:15:00;;;;;;;;;;;;;;;2.88;100.00;100483.12;5570448;32;34304;-72
2022/12/22 10:18:11;;;;;;;;;;;;;;;2.92;100.00;100468.00;5556659;32;33668;-72
2022/12/22 10:21:16;;;;;;;;;;;;;;;3.03;100.00;100452.31;5570308;32;34043;-72
2022/12/22 10:24:28;;;;;;;;;;;;;;;2.85;100.00;100457.19;5556702;32;33472;-70
2022/12/22 10:27:33;;;;;;;;;;;;;;;2.67;100.00;100449.84;5556925;32;33660;-71
2022/12/22 10:30:46;;;;;;;;;;;;;;;2.99;100.00;100451.72;5570155;32;34316;-72
2022/12/22 10:33:52;;;;;;;;;;;;;;;2.96;100.00;100448.47;5570032;32;33721;-71
2022/12/22 10:37:00;;;;;;;;;;;;;;;3.37;100.00;100446.13;5569154;32;33908;-72
2022/12/22 10:40:16;;;;;;;;;;;;;;;3.67;100.00;100439.41;5570231;32;34136;-72
2022/12/22 10:43:29;;;;;;;;;;;;;;;3.19;100.00;100431.00;5570305;32;34047;-71
2022/12/22 10:46:36;;;;;;;;;;;;;;;3.14;100.00;100433.97;5570158;32;33761;-71
2022/12/22 10:49:48;;;;;;;;;;;;;;;3.26;100.00;100435.62;5556411;32;34292;-72
2022/12/22 10:52:54;;;;;;;;;;;;;;;3.17;100.00;100411.91;5555897;32;32088;-72
2022/12/22 10:56:05;;;;;;;;;;;;;;;3.02;100.00;100406.09;5570277;32;34257;-72
2022/12/22 10:59:18;;;;;;;;;;;;;;;2.67;100.00;100398.31;5556538;32;34934;-72
2022/12/22 11:02:25;;;;;;;;;;;;;;;2.82;100.00;100423.34;5569998;32;34268;-74
2022/12/22 11:05:31;;;;;;;;;;;;;;;2.99;100.00;100419.44;5556152;32;33558;-71
2022/12/22 11:08:36;;;;;;;;;;;;;;;2.92;100.00;100408.59;5570142;32;33681;-71
2022/12/22 11:11:41;;;;;;;;;;;;;;;3.08;100.00;100416.09;5556154;32;33375;-71
2022/12/22 11:14:46;;;;;;;;;;;;;;;3.11;100.00;100417.63;5556271;32;32203;-71
2022/12/22 11:18:07;;;;;;;;;;;;;;;3.05;100.00;100424.19;5569906;32;34196;-71
2022/12/22 11:21:22;;;;;;;;;;;;;;;3.35;100.00;100411.31;5556764;32;33635;-72
2022/12/22 11:24:33;;;;;;;;;;;;;;;3.17;100.00;100397.03;5569918;32;34098;-72
2022/12/22 11:27:50;;;;;;;;;;;;;;;3.64;100.00;100401.12;5570093;32;33617;-71
2022/12/22 11:30:54;;;;;;;;;;;;;;;3.69;100.00;100390.25;5569876;32;33803;-71
2022/12/22 11:34:16;;;;;;;;;;;;;;;3.96;100.00;100401.16;5569745;32;33520;-72
2022/12/22 11:37:29;;;;;;;;;;;;;;;4.60;100.00;100391.38;5569788;32;34406;-71
2022/12/22 11:40:38;;;;;;;;;;;;;;;3.81;100.00;100377.00;5569768;32;33697;-71
2022/12/22 11:43:56;;;;;;;;;;;;;;;3.86;100.00;100382.72;5556107;32;33558;-72
2022/12/22 11:47:20;;;;;;;;;;;;;;;4.08;100.00;100409.81;5569107;32;34155;-72
2022/12/22 11:50:39;;;;;;;;;;;;;;;4.03;100.00;100399.69;5569585;32;34075;-72
2022/12/22 11:54:11;;;;;;;;;;;;;;;4.01;100.00;100404.25;5569719;32;33955;-72
2022/12/22 11:57:17;;;;;;;;;;;;;;;3.84;100.00;100404.75;5569518;32;33623;-72
2022/12/22 12:00:20;;;;;;;;;;;;;;;3.80;100.00;100392.84;5569413;32;33811;-72
2022/12/22 12:03:49;;;;;;;;;;;;;;;3.83;100.00;100389.97;5569258;32;33738;-72
2022/12/22 12:06:52;;;;;;;;;;;;;;;3.75;100.00;100390.59;5569356;32;33823;-72
2022/12/22 12:10:19;;;;;;;;;;;;;;;3.70;100.00;100395.38;5569662;32;34342;-71
2022/12/22 12:13:37;;;;;;;;;;;;;;;3.69;100.00;100396.34;5569257;32;33762;-71
2022/12/22 12:16:43;;;;;;;;;;;;;;;3.59;100.00;100389.31;5555253;32;32655;-72
2022/12/22 12:19:58;;;;;;;;;;;;;;;3.31;100.00;100391.53;5555306;32;34691;-72
2022/12/22 12:23:01;;;;;;;;;;;;;;;3.16;100.00;100371.75;5568980;32;34343;-72
2022/12/22 12:26:14;;;;;;;;;;;;;;;3.27;100.00;100377.00;5569255;32;34365;-71
2022/12/22 12:29:18;;;;;;;;;;;;;;;3.01;100.00;100360.69;5569048;32;34076;-72
2022/12/22 12:32:33;;;;;;;;;;;;;;;3.30;100.00;100371.50;5569042;32;34383;-71
2022/12/22 12:35:43;;;;;;;;;;;;;;;3.54;100.00;100381.00;5555345;32;33729;-72
2022/12/22 12:38:54;;;;;;;;;;;;;;;3.76;100.00;100417.69;5568857;32;33681;-71
2022/12/22 12:42:18;;;;;;;;;;;;;;;3.84;100.00;100420.50;5568753;32;33710;-72
2022/12/22 12:45:40;;;;;;;;;;;;;;;3.91;100.00;100430.41;5554805;32;35011;-72
2022/12/22 12:48:43;;;;;;;;;;;;;;;3.86;100.00;100423.84;5568583;32;33767;-71
2022/12/22 12:51:48;;;;;;;;;;;;;;;3.73;100.00;100417.91;5554612;32;32889;-71
2022/12/22 12:55:11;;;;;;;;;;;;;;;3.82;100.00;100415.41;5554233;32;33948;-72
2022/12/22 12:58:36;;;;;;;;;;;;;;;3.71;100.00;100418.06;5568560;32;33550;-72
2022/12/22 13:01:40;;;;;;;;;;;;;;;3.67;100.00;100413.19;5556960;32;34131;-72
2022/12/22 13:05:03;;;;;;;;;;;;;;;3.80;100.00;100412.06;5557396;32;33714;-72
2022/12/22 13:08:15;;;;;;;;;;;;;;;3.84;100.00;100397.72;5571183;32;33744;-72
2022/12/22 13:11:19;;;;;;;;;;;;;;;3.78;100.00;100408.72;5570912;32;33776;-72
2022/12/22 13:14:56;;;;;;;;;;;;;;;3.64;100.00;100403.75;5570991;32;34034;-71
2022/12/22 13:17:59;;;;;;;;;;;;;;;3.74;100.00;100402.06;5571002;32;33779;-71
2022/12/22 13:21:07;;;;;;;;;;;;;;;3.38;100.00;100390.09;5571047;32;34038;-72
2022/12/22 13:24:33;;;;;;;;;;;;;;;3.17;100.00;100354.25;5570903;32;33641;-72
2022/12/22 13:27:36;;;;;;;;;;;;;;;3.07;100.00;100351.53;5570888;32;33688;-72
2022/12/22 13:30:47;;;;;;;;;;;;;;;3.29;100.00;100363.78;5557984;32;34048;-72
2022/12/22 13:34:06;;;;;;;;;;;;;;;3.25;100.00;100360.53;5570933;32;33675;-72
2022/12/22 13:37:14;;;;;;;;;;;;;;;3.08;100.00;100358.44;5557316;32;32573;-72
2022/12/22 13:40:22;;;;;;;;;;;;;;;2.97;100.00;100340.09;5556871;32;32414;-72
2022/12/22 13:43:26;;;;;;;;;;;;;;;2.89;100.00;100311.87;5570746;32;33611;-71
2022/12/22 13:46:32;;;;;;;;;;;;;;;2.85;100.00;100328.81;5525887;32;983315;-72
2022/12/22 13:49:39;;;;;;;;;;;;;;;2.86;100.00;100313.88;5557509;32;33702;-72
2022/12/22 13:53:06;;;;;;;;;;;;;;;2.79;100.00;100313.56;5570916;32;34092;-72
2022/12/22 13:56:14;;;;;;;;;;;;;;;2.73;100.00;100319.25;5571013;32;33646;-73
2022/12/22 13:59:23;;;;;;;;;;;;;;;2.80;100.00;100338.81;5557079;32;32078;-73
2022/12/22 14:02:31;;;;;;;;;;;;;;;2.63;100.00;100292.13;5570301;32;34311;-72
2022/12/22 14:05:38;;;;;;;;;;;;;;;2.62;100.00;100311.41;5556606;32;32694;-72
2022/12/22 14:08:46;;;;;;;;;;;;;;;2.59;100.00;100294.16;5570671;32;34434;-72
2022/12/22 14:11:56;;;;;;;;;;;;;;;2.74;100.00;100318.31;5556572;32;32608;-72
2022/12/22 14:15:02;;;;;;;;;;;;;;;2.74;100.00;100333.19;5570667;32;33749;-72
2022/12/22 14:18:13;;;;;;;;;;;;;;;2.79;100.00;100337.12;5556807;32;33317;-73
2022/12/22 14:21:20;;;;;;;;;;;;;;;2.75;100.00;100299.03;5556475;32;34159;-72
2022/12/22 14:24:31;;;;;;;;;;;;;;;2.70;100.00;100311.66;5557464;32;33558;-72
2022/12/22 14:27:43;;;;;;;;;;;;;;;2.75;100.00;100319.16;5570410;32;33674;-72
2022/12/22 14:30:52;;;;;;;;;;;;;;;2.78;100.00;100311.87;5557080;32;34355;-73
2022/12/22 14:34:04;;;;;;;;;;;;;;;2.80;100.00;100306.53;5570503;32;34185;-73
2022/12/22 14:37:10;;;;;;;;;;;;;;;2.85;100.00;100333.22;5556713;32;33738;-72
2022/12/22 14:40:32;;;;;;;;;;;;;;;2.85;100.00;100333.22;5556753;32;33583;-73
2022/12/22 14:43:36;;;;;;;;;;;;;;;2.77;100.00;100352.13;5570261;32;33712;-72
2022/12/22 14:46:42;;;;;;;;;;;;;;;2.85;100.00;100355.00;5571474;32;33616;-71
2022/12/22 14:49:50;;;;;;;;;;;;;;;2.80;100.00;100358.94;5570154;32;33853;-72
2022/12/22 14:53:02;;;;;;;;;;;;;;;2.83;100.00;100346.41;5570140;32;34975;-72
2022/12/22 14:56:09;;;;;;;;;;;;;;;2.84;100.00;100349.88;5570292;32;34273;-72
2022/12/22 14:59:27;;;;;;;;;;;;;;;2.74;100.00;100336.66;5570222;32;34229;-72
2022/12/22 15:02:39;;;;;;;;;;;;;;;2.75;100.00;100330.47;5555985;32;32692;-72
2022/12/22 15:05:47;;;;;;;;;;;;;;;2.74;100.00;100314.87;5556314;32;32023;-72
2022/12/22 15:09:06;;;;;;;;;;;;;;;2.57;100.00;100311.75;5556109;32;32680;-72
2022/12/22 15:12:16;;;;;;;;;;;;;;;2.49;100.00;100314.13;5556366;32;33828;-73
2022/12/22 15:15:23;;;;;;;;;;;;;;;2.46;100.00;100318.78;5569793;32;34117;-74
2022/12/22 15:18:32;;;;;;;;;;;;;;;2.37;100.00;100311.63;5542287;32;33907;-73
2022/12/22 15:21:39;;;;;;;;;;;;;;;2.37;100.00;100315.06;5569296;32;33741;-73
2022/12/22 15:24:45;;;;;;;;;;;;;;;2.33;100.00;100316.25;5569611;32;34348;-73
2022/12/22 15:27:52;;;;;;;;;;;;;;;2.30;100.00;100311.25;5569430;32;33552;-73
2022/12/22 15:30:58;;;;;;;;;;;;;;;2.27;100.00;100300.19;5569661;32;34342;-73
2022/12/22 15:34:10;;;;;;;;;;;;;;;2.22;100.00;100297.09;5570020;32;33754;-74
2022/12/22 15:37:17;;;;;;;;;;;;;;;2.19;100.00;100299.00;5569793;32;34279;-73
2022/12/22 15:40:24;;;;;;;;;;;;;;;2.16;100.00;100286.16;5569543;32;33683;-72
2022/12/22 15:43:29;;;;;;;;;;;;;;;2.12;100.00;100271.63;5569774;32;33704;-75
2022/12/22 15:46:55;;;;;;;;;;;;;;;2.10;100.00;100278.75;5569348;32;34435;-73
2022/12/22 15:50:01;;;;;;;;;;;;;;;2.07;100.00;100265.91;5555707;32;32425;-73
2022/12/22 15:53:10;;;;;;;;;;;;;;;2.02;100.00;100259.34;5556009;32;32121;-72
2022/12/22 15:56:21;;;;;;;;;;;;;;;2.00;100.00;100258.63;5569824;32;33849;-74
2022/12/22 15:59:27;;;;;;;;;;;;;;;1.99;100.00;100260.41;5555965;32;34183;-75
2022/12/22 16:02:34;;;;;;;;;;;;;;;1.98;100.00;100261.37;5554990;32;34171;-73
2022/12/22 16:05:41;;;;;;;;;;;;;;;1.99;100.00;100265.62;5555708;32;33863;-73
2022/12/22 16:08:50;;;;;;;;;;;;;;;1.93;100.00;100262.69;5555555;32;32243;-73
2022/12/22 16:11:57;;;;;;;;;;;;;;;2.07;100.00;100260.69;5569261;32;33520;-73
2022/12/22 16:15:02;;;;;;;;;;;;;;;2.06;100.00;100277.31;5555539;32;34540;-73
2022/12/22 16:18:11;;;;;;;;;;;;;;;2.02;100.00;100268.03;5555276;32;33314;-73
2022/12/22 16:21:19;;;;;;;;;;;;;;;1.99;100.00;100278.72;5555717;32;34384;-74
2022/12/22 16:24:26;;;;;;;;;;;;;;;2.00;100.00;100290.88;5569021;32;33676;-73
2022/12/22 16:27:33;;;;;;;;;;;;;;;1.96;100.00;100302.50;5569029;32;33814;-72
2022/12/22 16:30:41;;;;;;;;;;;;;;;2.02;100.00;100311.69;5568993;32;34447;-72
2022/12/22 16:33:46;;;;;;;;;;;;;;;2.00;100.00;100309.19;5568566;32;34396;-73
2022/12/22 16:36:50;;;;;;;;;;;;;;;2.02;100.00;100304.69;5571235;32;34381;-73
2022/12/22 16:39:56;;;;;;;;;;;;;;;2.11;100.00;100316.22;5557900;32;33723;-73
2022/12/22 16:43:07;;;;;;;;;;;;;;;2.14;100.00;100308.97;5557613;32;34607;-73
2022/12/22 16:46:28;;;;;;;;;;;;;;;2.19;100.00;100299.00;5571122;32;34015;-73
2022/12/22 16:49:32;;;;;;;;;;;;;;;2.21;100.00;100303.28;5557681;32;32457;-74
2022/12/22 16:52:37;;;;;;;;;;;;;;;2.18;100.00;100296.47;5571031;32;33476;-72
2022/12/22 16:55:46;;;;;;;;;;;;;;;2.16;100.00;100303.62;5557365;32;33996;-73
2022/12/22 16:58:55;;;;;;;;;;;;;;;2.21;100.00;100300.66;5570888;32;33665;-73
2022/12/22 17:02:01;;;;;;;;;;;;;;;2.26;100.00;100306.38;5571123;32;34232;-74
2022/12/22 17:05:12;;;;;;;;;;;;;;;2.23;100.00;100296.97;5571214;32;33603;-74
2022/12/22 17:08:19;;;;;;;;;;;;;;;2.35;100.00;100296.03;5557243;32;33951;-73
2022/12/22 17:11:28;;;;;;;;;;;;;;;2.36;100.00;100295.09;5571356;32;33748;-73
2022/12/22 17:14:36;;;;;;;;;;;;;;;2.40;100.00;100295.69;5571018;32;34353;-75
2022/12/22 17:17:42;;;;;;;;;;;;;;;2.43;100.00;100288.44;5570897;32;34477;-74
2022/12/22 17:20:54;;;;;;;;;;;;;;;2.44;100.00;100286.66;5557173;32;33375;-74
2022/12/22 17:24:02;;;;;;;;;;;;;;;2.54;100.00;100279.75;5570771;32;33760;-74
2022/12/22 17:27:10;;;;;;;;;;;;;;;2.51;100.00;100277.37;5557046;32;33889;-75
2022/12/22 17:30:19;;;;;;;;;;;;;;;2.57;100.00;100279.50;5570685;32;33684;-73
2022/12/22 17:33:25;;;;;;;;;;;;;;;2.60;100.00;100287.97;5570997;32;34339;-73
2022/12/22 17:36:34;;;;;;;;;;;;;;;2.65;100.00;100286.78;5556931;32;33842;-74
2022/12/22 17:39:42;;;;;;;;;;;;;;;2.61;100.00;100287.00;5570611;32;33643;-73
2022/12/22 17:42:50;;;;;;;;;;;;;;;2.67;100.00;100290.09;5570852;32;33680;-74
2022/12/22 17:45:59;;;;;;;;;;;;;;;2.72;100.00;100285.31;5536824;32;34602;-73
2022/12/22 17:49:07;;;;;;;;;;;;;;;2.73;100.00;100292.22;5525093;32;34619;-74
2022/12/22 17:52:19;;;;;;;;;;;;;;;2.69;100.00;100296.88;5551511;32;34415;-74
2022/12/22 17:55:25;;;;;;;;;;;;;;;2.70;100.00;100289.88;5537285;32;32264;-73
2022/12/22 17:58:52;;;;;;;;;;;;;;;2.75;100.00;100288.56;5551290;32;33660;-74
2022/12/22 18:02:00;;;;;;;;;;;;;;;2.74;100.00;100289.50;5551592;32;33645;-74
2022/12/22 18:05:12;;;;;;;;;;;;;;;2.74;100.00;100286.88;5551236;32;34041;-73
2022/12/22 18:08:20;;;;;;;;;;;;;;;2.70;100.00;100280.22;5551137;32;34116;-74
2022/12/22 18:11:26;;;;;;;;;;;;;;;2.70;100.00;100285.47;5537439;32;32113;-73
2022/12/22 18:14:32;;;;;;;;;;;;;;;2.73;100.00;100292.22;5551061;32;33659;-74
2022/12/22 18:17:37;;;;;;;;;;;;;;;2.69;100.00;100286.41;5551060;32;33684;-74
2022/12/22 18:20:47;;;;;;;;;;;;;;;2.67;100.00;100295.31;5550952;32;34278;-74
2022/12/22 18:24:15;;;;;;;;;;;;;;;2.67;100.00;100290.94;5551159;32;33613;-74
2022/12/22 18:27:23;;;;;;;;;;;;;;;2.70;100.00;100289.88;5550918;32;33581;-74
2022/12/22 18:30:33;;;;;;;;;;;;;;;2.70;100.00;100297.72;5551012;32;34279;-73
2022/12/22 18:33:42;;;;;;;;;;;;;;;2.75;100.00;100285.94;5550918;32;34348;-73
2022/12/22 18:36:46;;;;;;;;;;;;;;;2.76;100.00;100299.88;5537179;32;35674;-73
2022/12/22 18:39:53;;;;;;;;;;;;;;;2.81;100.00;100287.25;5550154;32;33577;-73
2022/12/22 18:43:01;;;;;;;;;;;;;;;2.90;100.00;100274.25;5551056;32;33953;-72
2022/12/22 18:46:09;;;;;;;;;;;;;;;2.90;100.00;100268.19;5561517;32;33712;-72
2022/12/22 18:49:19;;;;;;;;;;;;;;;2.91;100.00;100260.19;5570349;32;33796;-73
2022/12/22 18:52:27;;;;;;;;;;;;;;;2.94;100.00;100252.09;5570286;32;33598;-72
2022/12/22 18:55:33;;;;;;;;;;;;;;;2.92;100.00;100246.12;5570311;32;34386;-72
2022/12/22 18:58:42;;;;;;;;;;;;;;;2.89;100.00;100237.69;5555302;32;34048;-73
2022/12/22 19:01:49;;;;;;;;;;;;;;;2.89;100.00;100228.03;5569944;31;33649;-72
2022/12/22 19:04:57;;;;;;;;;;;;;;;2.91;100.00;100241.00;5570297;32;34257;-72
2022/12/22 19:08:09;;;;;;;;;;;;;;;2.89;100.00;100233.28;5556325;32;33867;-73
2022/12/22 19:11:16;;;;;;;;;;;;;;;2.90;100.00;100228.88;5570113;32;34141;-72
2022/12/22 19:14:21;;;;;;;;;;;;;;;2.94;100.00;100230.28;5570047;32;33725;-72
2022/12/22 19:17:27;;;;;;;;;;;;;;;2.96;100.00;100228.38;5570008;32;34410;-73
2022/12/22 19:20:32;;;;;;;;;;;;;;;2.96;100.00;100226.59;5570123;32;33638;-72
2022/12/22 19:23:39;;;;;;;;;;;;;;;2.94;100.00;100223.28;5570206;32;33574;-73
2022/12/22 19:26:44;;;;;;;;;;;;;;;2.91;100.00;100225.28;5570099;32;34421;-73
2022/12/22 19:29:52;;;;;;;;;;;;;;;2.91;100.00;100223.50;5570013;32;33733;-72
2022/12/22 19:33:08;;;;;;;;;;;;;;;2.95;100.00;100216.25;5570387;32;34218;-72
2022/12/22 19:36:16;;;;;;;;;;;;;;;2.97;100.00;100217.78;5570072;32;33628;-72
2022/12/22 19:39:20;;;;;;;;;;;;;;;2.96;100.00;100218.72;5556078;32;34317;-72
2022/12/22 19:42:24;;;;;;;;;;;;;;;2.97;100.00;100207.28;5543530;32;33713;-72
2022/12/22 19:45:34;;;;;;;;;;;;;;;2.93;100.00;100197.19;5569896;32;33882;-72